Time;durP1;ratioP1;P1;durP2;ratioP2;P2;SDS_P1;SDS_P2;PMS_P1;PMS_P2;Temp;Humidity;BMP_temperature;BMP_pressure;BME280_temperature;BME280_humidity;BME280_pressure;Samples;Min_cycle;Max_cycle;Signal;HPM_P1;HPM_P2
2023/10/29 00:01:19;;;;;;;4.80;1.20;;;;;;;12.40;100.00;99061.13;5015639;28;20061;-69
2023/10/29 00:03:45;;;;;;;1.88;1.00;;;;;;;12.41;100.00;99052.09;5014268;28;20034;-68
2023/10/29 00:06:11;;;;;;;1.70;1.10;;;;;;;12.41;100.00;99043.31;5020256;28;20030;-69
2023/10/29 00:08:37;;;;;;;3.63;1.27;;;;;;;12.43;100.00;99048.41;5023761;28;20034;-68
2023/10/29 00:11:02;;;;;;;2.47;1.10;;;;;;;12.48;100.00;99053.88;5013743;28;20157;-69
2023/10/29 00:13:27;;;;;;;2.55;1.40;;;;;;;12.51;100.00;99054.25;5029942;28;20030;-68
2023/10/29 00:15:53;;;;;;;2.95;1.25;;;;;;;12.56;100.00;99040.25;5017460;28;20498;-68
2023/10/29 00:18:18;;;;;;;5.05;1.35;;;;;;;12.58;100.00;99025.66;5022182;28;20065;-68
2023/10/29 00:20:44;;;;;;;4.03;1.50;;;;;;;12.61;100.00;99035.03;5016921;28;20025;-68
2023/10/29 00:23:10;;;;;;;2.15;1.15;;;;;;;12.62;100.00;99020.69;5011990;28;20133;-68
2023/10/29 00:25:35;;;;;;;2.17;1.15;;;;;;;12.63;100.00;99001.81;5023496;28;20109;-68
2023/10/29 00:28:00;;;;;;;3.83;1.30;;;;;;;12.67;100.00;99002.97;5016630;28;20038;-68
2023/10/29 00:30:25;;;;;;;2.40;1.00;;;;;;;12.72;100.00;99002.28;5016993;28;20028;-68
2023/10/29 00:32:51;;;;;;;4.07;1.35;;;;;;;12.76;100.00;99000.00;5021046;28;20052;-68
2023/10/29 00:35:16;;;;;;;3.75;1.27;;;;;;;12.74;100.00;98981.59;5012722;28;20491;-68
2023/10/29 00:37:41;;;;;;;2.88;1.20;;;;;;;12.82;100.00;99012.38;5012839;28;20054;-68
2023/10/29 00:40:08;;;;;;;3.20;1.20;;;;;;;12.83;100.00;99011.34;5014063;28;20041;-68
2023/10/29 00:42:34;;;;;;;4.78;1.20;;;;;;;12.84;100.00;99002.31;5021443;28;20395;-68
2023/10/29 00:44:59;;;;;;;5.80;1.30;;;;;;;12.86;100.00;98994.91;5028295;28;20033;-69
2023/10/29 00:47:24;;;;;;;3.13;1.23;;;;;;;12.85;100.00;98994.09;5024994;28;20076;-68
2023/10/29 00:49:50;;;;;;;3.15;1.20;;;;;;;12.87;100.00;98997.34;5013176;28;20033;-68
2023/10/29 00:52:17;;;;;;;3.03;1.13;;;;;;;12.89;100.00;98994.44;5030597;28;20028;-68
2023/10/29 00:54:42;;;;;;;2.22;1.13;;;;;;;12.92;100.00;98993.97;5024988;28;20075;-69
2023/10/29 00:57:08;;;;;;;3.38;1.20;;;;;;;12.85;100.00;98974.63;5015882;28;20057;-68
2023/10/29 00:59:34;;;;;;;2.63;1.00;;;;;;;12.88;100.00;98966.19;5025806;28;20030;-68
2023/10/29 01:01:59;;;;;;;4.25;1.35;;;;;;;12.93;100.00;98964.44;5018558;28;20030;-68
2023/10/29 01:04:24;;;;;;;3.58;1.23;;;;;;;12.95;100.00;98964.19;5023370;28;20041;-68
2023/10/29 01:06:50;;;;;;;2.53;1.10;;;;;;;12.88;100.00;98944.88;5026983;28;20091;-68
2023/10/29 01:09:16;;;;;;;4.45;1.02;;;;;;;12.93;100.00;98952.97;5019303;28;20048;-68
2023/10/29 01:11:42;;;;;;;2.30;1.10;;;;;;;13.09;100.00;98957.59;5014035;28;20018;-68
2023/10/29 01:14:07;;;;;;;3.33;1.17;;;;;;;13.15;100.00;98947.88;5016751;28;20080;-68
2023/10/29 01:16:32;;;;;;;4.10;1.20;;;;;;;13.13;100.00;98936.63;5014062;28;20111;-69
2023/10/29 01:19:01;;;;;;;2.78;1.10;;;;;;;13.15;100.00;98940.69;5020349;28;20133;-69
2023/10/29 01:21:28;;;;;;;5.68;1.40;;;;;;;13.21;100.00;98954.94;5021277;28;20491;-69
2023/10/29 01:23:53;;;;;;;3.00;1.02;;;;;;;13.31;100.00;98940.00;5013805;28;20030;-68
2023/10/29 01:26:19;;;;;;;5.32;1.50;;;;;;;13.37;100.00;98940.09;5014652;28;20018;-69
2023/10/29 01:28:44;;;;;;;2.30;1.17;;;;;;;13.42;100.00;98940.22;5016805;28;20014;-68
2023/10/29 01:31:10;;;;;;;3.22;1.00;;;;;;;13.47;100.00;98940.31;5027022;28;20039;-68
2023/10/29 01:33:36;;;;;;;2.53;1.08;;;;;;;13.49;100.00;98944.34;5017236;28;20017;-69
2023/10/29 01:36:01;;;;;;;5.40;1.02;;;;;;;13.53;100.00;98950.03;5009671;28;20125;-69
2023/10/29 01:38:27;;;;;;;2.40;1.00;;;;;;;13.56;100.00;98942.34;5008641;28;20033;-69
2023/10/29 01:40:52;;;;;;;3.28;0.93;;;;;;;13.59;100.00;98941.91;5015281;28;20014;-69
2023/10/29 01:43:17;;;;;;;3.00;1.00;;;;;;;13.58;100.00;98942.13;5014258;28;20049;-68
2023/10/29 01:45:43;;;;;;;5.32;0.93;;;;;;;13.59;100.00;98938.44;5021530;28;20041;-69
2023/10/29 01:48:08;;;;;;;3.97;1.15;;;;;;;13.61;100.00;98934.47;5018669;28;20085;-69
2023/10/29 01:50:35;;;;;;;2.80;0.88;;;;;;;13.58;100.00;98939.44;5017722;28;20018;-69
2023/10/29 01:53:00;;;;;;;2.97;1.00;;;;;;;13.57;100.00;98929.84;5018206;28;20036;-69
2023/10/29 01:55:26;;;;;;;3.08;1.10;;;;;;;13.57;100.00;98935.16;5017429;28;20621;-69
2023/10/29 01:57:51;;;;;;;2.72;1.20;;;;;;;13.57;100.00;98925.31;5013723;28;20029;-69
2023/10/29 02:00:17;;;;;;;4.55;1.00;;;;;;;13.54;100.00;98939.13;5019458;28;20025;-69
2023/10/29 02:02:42;;;;;;;3.45;1.10;;;;;;;13.49;100.00;98931.03;5016951;28;20096;-69
2023/10/29 02:05:07;;;;;;;2.92;1.00;;;;;;;13.46;100.00;98920.03;5023813;28;20104;-69
2023/10/29 02:07:33;;;;;;;2.65;1.00;;;;;;;13.39;100.00;98914.81;5028487;28;20025;-69
2023/10/29 02:09:59;;;;;;;1.45;0.90;;;;;;;13.42;100.00;98925.03;5016654;28;20022;-69
2023/10/29 02:12:24;;;;;;;3.13;1.10;;;;;;;13.40;100.00;98924.44;5029778;28;20052;-69
2023/10/29 02:14:49;;;;;;;2.10;0.93;;;;;;;13.38;100.00;98925.72;5016082;28;20026;-69
2023/10/29 02:17:15;;;;;;;4.65;1.20;;;;;;;13.40;100.00;98932.44;5028909;28;20489;-69
2023/10/29 02:19:40;;;;;;;2.05;0.93;;;;;;;13.37;100.00;98932.91;5020637;28;20483;-69
2023/10/29 02:22:05;;;;;;;3.38;1.00;;;;;;;13.38;100.00;98929.22;5014321;28;20036;-69
2023/10/29 02:24:31;;;;;;;2.30;1.02;;;;;;;13.37;100.00;98932.09;5024559;28;20613;-69
2023/10/29 02:26:56;;;;;;;2.85;0.90;;;;;;;13.36;100.00;98925.16;5027063;28;20029;-69
2023/10/29 02:29:21;;;;;;;1.98;1.00;;;;;;;13.36;100.00;98933.16;5027833;28;20025;-69
2023/10/29 02:31:47;;;;;;;2.78;0.90;;;;;;;13.33;100.00;98932.59;5016240;28;20028;-69
2023/10/29 02:34:12;;;;;;;4.25;1.15;;;;;;;13.34;100.00;98938.72;5020343;28;20025;-69
2023/10/29 02:36:37;;;;;;;1.95;1.10;;;;;;;13.32;100.00;98922.97;5013291;28;20025;-69
2023/10/29 02:39:03;;;;;;;1.23;0.90;;;;;;;13.29;100.00;98928.75;5016181;28;20025;-69
2023/10/29 02:41:28;;;;;;;2.85;1.00;;;;;;;13.32;100.00;98909.63;5011135;28;20032;-69
2023/10/29 02:43:55;;;;;;;4.50;1.10;;;;;;;13.38;100.00;98923.88;5016965;28;20025;-69
2023/10/29 02:46:20;;;;;;;2.55;0.80;;;;;;;13.39;100.00;98908.69;5014268;28;20025;-69
2023/10/29 02:48:46;;;;;;;3.13;1.10;;;;;;;13.39;100.00;98917.50;5020481;28;20029;-68
2023/10/29 02:51:12;;;;;;;2.53;0.90;;;;;;;13.37;100.00;98916.91;5018468;28;20491;-69
2023/10/29 02:53:38;;;;;;;2.67;1.00;;;;;;;13.41;100.00;98925.25;5025804;28;20033;-68
2023/10/29 02:56:03;;;;;;;1.63;0.98;;;;;;;13.39;100.00;98920.16;5019037;28;20047;-68
2023/10/29 02:58:29;;;;;;;1.92;1.00;;;;;;;13.41;100.00;98927.91;5021077;28;20033;-69
2023/10/29 03:01:06;;;;;;;1.35;0.80;;;;;;;13.46;99.76;98914.69;5019472;28;20025;-69
2023/10/29 03:03:32;;;;;;;2.70;0.93;;;;;;;13.44;99.70;98919.44;5015044;28;20068;-68
2023/10/29 03:05:57;;;;;;;2.55;0.98;;;;;;;13.46;99.29;98898.69;5015859;28;20017;-68
2023/10/29 03:08:23;;;;;;;2.67;0.98;;;;;;;13.45;99.29;98899.72;5028320;28;20026;-68
2023/10/29 03:10:51;;;;;;;4.13;0.80;;;;;;;13.48;99.06;98902.72;5023056;28;20041;-68
2023/10/29 03:13:16;;;;;;;2.00;1.00;;;;;;;13.44;98.90;98895.44;5012753;28;20035;-68
2023/10/29 03:15:42;;;;;;;1.75;0.90;;;;;;;13.44;98.96;98903.44;5028781;28;20021;-68
2023/10/29 03:18:07;;;;;;;3.00;1.10;;;;;;;13.41;98.73;98906.59;5015317;28;20495;-69
2023/10/29 03:20:32;;;;;;;3.85;0.98;;;;;;;13.45;98.77;98918.41;5027069;28;20028;-69
2023/10/29 03:22:58;;;;;;;2.65;0.82;;;;;;;13.48;98.13;98915.25;5022083;28;20491;-68
2023/10/29 03:25:24;;;;;;;4.05;0.88;;;;;;;13.50;97.69;98923.84;5010223;28;20025;-68
2023/10/29 03:27:49;;;;;;;1.42;0.88;;;;;;;13.56;97.49;98917.53;5020163;28;20072;-68
2023/10/29 03:30:15;;;;;;;1.58;0.70;;;;;;;13.61;97.16;98925.66;5017747;28;20418;-68
2023/10/29 03:32:40;;;;;;;1.85;0.90;;;;;;;13.58;97.23;98929.59;5018635;28;20041;-69
2023/10/29 03:35:06;;;;;;;2.83;0.90;;;;;;;13.30;98.10;98919.72;5016688;28;20041;-69
2023/10/29 03:37:31;;;;;;;1.42;1.00;;;;;;;13.16;99.05;98926.31;5013835;28;20030;-69
2023/10/29 03:39:58;;;;;;;3.05;0.95;;;;;;;13.17;99.44;98927.97;5009770;28;20475;-69
2023/10/29 03:42:23;;;;;;;5.68;1.08;;;;;;;13.21;99.32;98921.09;5018682;28;20483;-69
2023/10/29 03:44:49;;;;;;;1.95;0.80;;;;;;;13.25;99.36;98908.94;5020239;28;20025;-69
2023/10/29 03:47:14;;;;;;;2.72;0.70;;;;;;;13.36;98.50;98917.16;5025671;28;20131;-69
2023/10/29 03:49:41;;;;;;;3.03;0.73;;;;;;;13.41;97.80;98912.72;5012039;28;20010;-69
2023/10/29 03:52:07;;;;;;;2.13;0.80;;;;;;;13.35;97.75;98892.34;5013611;28;20037;-69
2023/10/29 03:54:33;;;;;;;2.97;0.90;;;;;;;13.46;97.26;98904.03;5029998;28;20396;-69
2023/10/29 03:56:59;;;;;;;7.18;0.90;;;;;;;13.14;96.94;98864.44;5013113;28;20029;-69
2023/10/29 03:59:24;;;;;;;1.60;0.90;;;;;;;13.43;96.95;98901.84;5012713;28;20021;-69
2023/10/29 04:01:49;;;;;;;3.03;0.85;;;;;;;13.47;96.74;98901.13;5023659;28;20457;-69
2023/10/29 04:04:15;;;;;;;2.55;0.98;;;;;;;13.48;96.49;98924.06;5032090;28;20035;-69
2023/10/29 04:06:41;;;;;;;2.83;1.00;;;;;;;13.49;96.29;98915.03;5022918;28;20421;-70
2023/10/29 04:09:06;;;;;;;1.45;0.80;;;;;;;13.45;96.43;98923.72;5023374;28;20522;-69
2023/10/29 04:11:31;;;;;;;0.98;0.70;;;;;;;13.42;96.74;98929.53;5020717;28;20538;-69
2023/10/29 04:13:57;;;;;;;2.70;1.45;;;;;;;13.41;96.19;98930.59;5022690;28;20032;-69
2023/10/29 04:16:22;;;;;;;3.08;0.80;;;;;;;13.40;96.02;98935.13;5018171;28;20029;-69
2023/10/29 04:18:47;;;;;;;2.55;0.73;;;;;;;13.43;95.88;98931.16;5028168;28;20029;-68
2023/10/29 04:21:13;;;;;;;2.92;0.80;;;;;;;13.45;96.15;98950.41;5011870;28;20029;-69
2023/10/29 04:23:39;;;;;;;3.08;0.82;;;;;;;13.44;96.02;98949.59;5016848;28;20494;-69
2023/10/29 04:26:04;;;;;;;2.63;0.70;;;;;;;13.43;95.81;98944.50;5025497;28;20040;-69
2023/10/29 04:28:30;;;;;;;4.15;0.90;;;;;;;13.42;96.13;98945.53;5015515;28;20092;-69
2023/10/29 04:30:55;;;;;;;3.30;1.05;;;;;;;13.39;96.53;98946.81;5023172;28;20021;-69
2023/10/29 04:33:21;;;;;;;4.05;1.13;;;;;;;13.29;96.61;98942.06;5016661;28;20416;-69
2023/10/29 04:35:46;;;;;;;2.95;0.90;;;;;;;13.35;97.00;98944.88;5019816;28;20521;-69
2023/10/29 04:38:12;;;;;;;3.58;0.98;;;;;;;13.36;97.05;98952.63;5014607;28;20041;-69
2023/10/29 04:40:37;;;;;;;3.03;1.10;;;;;;;13.35;97.15;98955.53;5013683;28;20033;-69
2023/10/29 04:43:03;;;;;;;5.57;0.90;;;;;;;13.36;97.33;98957.16;5024226;28;20537;-69
2023/10/29 04:45:28;;;;;;;4.32;1.13;;;;;;;13.21;97.75;98960.28;5017814;28;20026;-69
2023/10/29 04:47:53;;;;;;;3.67;1.08;;;;;;;13.13;98.44;98969.41;5012880;28;20057;-69
2023/10/29 04:50:19;;;;;;;3.88;1.10;;;;;;;13.14;98.51;98954.25;5024707;28;20028;-69
2023/10/29 04:52:44;;;;;;;3.72;0.95;;;;;;;13.20;98.10;98954.13;5023130;28;20057;-69
2023/10/29 04:55:09;;;;;;;6.22;0.90;;;;;;;13.16;98.33;98966.28;5019959;28;20041;-69
2023/10/29 04:57:35;;;;;;;5.15;0.98;;;;;;;13.16;98.08;98966.28;5017997;28;20087;-69
2023/10/29 05:00:00;;;;;;;5.22;1.10;;;;;;;13.18;98.41;98971.41;5015738;28;20021;-70
2023/10/29 05:02:26;;;;;;;4.78;1.20;;;;;;;13.18;98.49;98961.56;5009260;28;20048;-69
2023/10/29 05:04:51;;;;;;;3.88;1.17;;;;;;;13.14;98.93;98952.38;5020790;28;20029;-69
2023/10/29 05:07:17;;;;;;;4.07;1.10;;;;;;;13.11;99.23;98966.19;5026383;28;20133;-70
2023/10/29 05:09:42;;;;;;;6.00;1.40;;;;;;;13.10;99.15;98953.91;5013915;28;20108;-70
2023/10/29 05:12:08;;;;;;;4.47;1.13;;;;;;;12.97;99.29;98951.47;5018555;28;20029;-70
2023/10/29 05:14:33;;;;;;;4.70;1.00;;;;;;;12.78;100.00;98965.94;5008322;28;20424;-70
2023/10/29 05:16:58;;;;;;;3.45;0.77;;;;;;;12.66;99.21;98966.72;5019853;28;20025;-69
2023/10/29 05:19:24;;;;;;;0.75;0.60;;;;;;;12.63;96.04;98961.06;5013186;28;20018;-70
2023/10/29 05:21:50;;;;;;;4.22;0.85;;;;;;;12.63;94.47;98982.34;5015489;28;20079;-70
2023/10/29 05:24:15;;;;;;;2.60;0.88;;;;;;;12.51;94.00;98977.03;5013754;28;20034;-70
2023/10/29 05:26:41;;;;;;;2.35;0.60;;;;;;;12.46;93.37;98984.09;5009912;28;20036;-70
2023/10/29 05:29:06;;;;;;;3.53;0.70;;;;;;;12.38;93.75;98979.88;5012906;28;20105;-70
2023/10/29 05:31:32;;;;;;;2.90;1.05;;;;;;;12.38;94.32;98985.19;5025667;28;20391;-69
2023/10/29 05:33:57;;;;;;;1.85;0.70;;;;;;;12.38;95.36;98979.88;5031858;28;20021;-70
2023/10/29 05:36:23;;;;;;;3.30;0.70;;;;;;;12.38;96.06;98978.03;5025940;28;20037;-70
2023/10/29 05:38:48;;;;;;;4.07;0.80;;;;;;;12.41;96.26;98968.75;5014553;28;20021;-69
2023/10/29 05:41:13;;;;;;;3.97;0.90;;;;;;;12.43;96.88;98972.00;5020993;28;20083;-69
2023/10/29 05:43:39;;;;;;;3.67;1.17;;;;;;;12.45;97.32;98967.28;5018393;28;20125;-69
2023/10/29 05:46:04;;;;;;;2.65;0.80;;;;;;;12.52;96.40;99021.25;5012864;28;20029;-70
2023/10/29 05:48:29;;;;;;;2.45;0.77;;;;;;;12.64;95.76;99021.25;5022056;28;20407;-69
2023/10/29 05:50:54;;;;;;;3.58;0.90;;;;;;;12.68;94.74;99020.56;5026061;28;20024;-69
2023/10/29 05:53:20;;;;;;;2.58;0.70;;;;;;;12.67;94.36;99024.28;5022555;28;20021;-70
2023/10/29 05:55:45;;;;;;;2.63;0.80;;;;;;;12.53;94.60;99030.03;5021223;28;20026;-69
2023/10/29 05:58:10;;;;;;;3.08;0.88;;;;;;;12.54;94.45;99031.66;5018861;28;20514;-69
2023/10/29 06:00:36;;;;;;;3.65;0.90;;;;;;;12.55;94.71;99034.09;5016342;28;20029;-69
2023/10/29 06:03:01;;;;;;;4.05;1.05;;;;;;;12.56;94.51;99032.25;5023289;28;20025;-70
2023/10/29 06:05:26;;;;;;;4.30;0.70;;;;;;;12.55;94.20;99055.41;5021243;28;20385;-70
2023/10/29 06:07:52;;;;;;;2.63;0.80;;;;;;;12.53;94.64;99054.00;5021718;28;20116;-70
2023/10/29 06:10:17;;;;;;;5.40;0.90;;;;;;;12.46;94.93;99069.28;5018067;28;20033;-70
2023/10/29 06:12:42;;;;;;;2.95;0.90;;;;;;;12.40;95.63;99070.97;5021586;28;20017;-70
2023/10/29 06:15:10;;;;;;;5.10;1.00;;;;;;;12.34;95.77;99080.66;5032823;28;20506;-70
2023/10/29 06:17:35;;;;;;;3.50;0.90;;;;;;;12.31;96.41;99088.28;5024454;28;20021;-69
2023/10/29 06:20:02;;;;;;;5.68;1.00;;;;;;;12.30;96.81;99086.66;5029084;28;20161;-69
2023/10/29 06:22:27;;;;;;;2.92;1.10;;;;;;;12.27;97.16;99092.44;5032933;28;20465;-70
2023/10/29 06:24:53;;;;;;;4.28;1.08;;;;;;;12.23;97.52;99100.06;5015504;28;20026;-69
2023/10/29 06:27:18;;;;;;;5.03;1.38;;;;;;;12.25;97.69;99099.84;5023715;28;20033;-70
2023/10/29 06:29:44;;;;;;;5.78;1.13;;;;;;;12.20;97.93;99099.72;5019568;28;20018;-70
2023/10/29 06:32:09;;;;;;;4.95;1.10;;;;;;;12.20;98.10;99107.69;5021304;28;20040;-70
2023/10/29 06:34:34;;;;;;;6.72;1.23;;;;;;;12.18;98.06;99101.78;5022268;28;20022;-70
2023/10/29 06:37:00;;;;;;;3.58;0.90;;;;;;;12.13;98.42;99099.75;5024436;28;20030;-69
2023/10/29 06:39:25;;;;;;;5.72;1.48;;;;;;;12.15;98.63;99105.72;5024690;28;20031;-70
2023/10/29 06:41:50;;;;;;;5.40;1.10;;;;;;;12.12;98.70;99102.66;5023762;28;20027;-70
2023/10/29 06:44:15;;;;;;;5.95;1.35;;;;;;;12.13;98.75;99122.91;5010973;28;20033;-69
2023/10/29 06:46:41;;;;;;;9.50;1.48;;;;;;;12.13;98.74;99120.25;5023116;28;20079;-70
2023/10/29 06:49:06;;;;;;;5.03;1.15;;;;;;;12.09;98.67;99122.53;5024788;28;20029;-70
2023/10/29 06:51:31;;;;;;;6.00;1.90;;;;;;;12.12;98.56;99118.63;5025272;28;20439;-70
2023/10/29 06:53:57;;;;;;;4.03;1.20;;;;;;;12.10;98.55;99129.47;5020510;28;20109;-69
2023/10/29 06:56:22;;;;;;;5.72;1.20;;;;;;;12.11;98.25;99139.09;5019994;28;20046;-69
2023/10/29 06:58:47;;;;;;;3.95;1.23;;;;;;;12.14;98.03;99135.16;5020168;28;20033;-69
2023/10/29 07:01:13;;;;;;;5.68;1.60;;;;;;;12.10;97.72;99143.59;5021055;28;20439;-69
2023/10/29 07:03:38;;;;;;;6.97;1.40;;;;;;;12.13;97.28;99152.97;5033302;28;20037;-70
2023/10/29 07:06:06;;;;;;;6.88;1.55;;;;;;;12.18;97.02;99157.66;5022991;28;20038;-69
2023/10/29 07:08:32;;;;;;;9.52;1.67;;;;;;;12.18;96.48;99155.81;5030154;28;20409;-69
2023/10/29 07:10:57;;;;;;;7.63;1.23;;;;;;;12.15;96.31;99155.44;5023339;28;20535;-69
2023/10/29 07:13:23;;;;;;;7.47;1.40;;;;;;;12.21;95.85;99170.53;5012224;28;20057;-69
2023/10/29 07:15:48;;;;;;;8.48;1.65;;;;;;;12.19;95.67;99169.94;5015448;28;20033;-69
2023/10/29 07:18:13;;;;;;;5.88;1.30;;;;;;;12.21;95.50;99176.66;5020071;28;20096;-70
2023/10/29 07:20:39;;;;;;;12.07;2.00;;;;;;;12.26;94.96;99186.63;5014587;28;20607;-69
2023/10/29 07:23:04;;;;;;;6.32;1.38;;;;;;;12.30;94.74;99193.94;5018658;28;20036;-69
2023/10/29 07:25:29;;;;;;;9.75;1.58;;;;;;;12.32;94.36;99185.75;5016236;28;20026;-69
2023/10/29 07:27:55;;;;;;;8.15;1.60;;;;;;;12.29;94.51;99183.53;5016874;28;20029;-70
2023/10/29 07:30:20;;;;;;;6.88;1.55;;;;;;;12.33;94.07;99195.34;5016344;28;20028;-69
2023/10/29 07:32:45;;;;;;;7.72;1.58;;;;;;;12.30;93.88;99187.81;5015440;28;20076;-70
2023/10/29 07:35:10;;;;;;;7.28;1.55;;;;;;;12.28;93.85;99203.19;5017455;28;20508;-70
2023/10/29 07:37:36;;;;;;;7.68;1.75;;;;;;;12.24;93.98;99199.34;5021535;28;20034;-69
2023/10/29 07:40:01;;;;;;;9.27;1.52;;;;;;;12.24;93.95;99212.66;5012990;28;20026;-69
2023/10/29 07:42:26;;;;;;;8.73;1.80;;;;;;;12.15;93.97;99204.16;5008813;28;20080;-69
2023/10/29 07:44:53;;;;;;;8.25;1.95;;;;;;;12.25;94.13;99208.97;5033083;28;20410;-69
2023/10/29 07:47:19;;;;;;;9.63;1.52;;;;;;;12.25;94.05;99219.63;5014582;28;20061;-69
2023/10/29 07:49:44;;;;;;;13.25;1.60;;;;;;;12.29;94.21;99216.28;5023811;28;20045;-69
2023/10/29 07:52:10;;;;;;;13.45;2.25;;;;;;;12.35;93.58;99223.38;5017935;28;20030;-69
2023/10/29 07:54:35;;;;;;;7.03;2.13;;;;;;;12.41;93.40;99219.00;5023831;28;20108;-69
2023/10/29 07:57:00;;;;;;;9.45;1.67;;;;;;;12.46;93.42;99226.34;5019599;28;20016;-69
2023/10/29 07:59:26;;;;;;;7.90;1.90;;;;;;;12.51;92.99;99213.19;5018130;28;20347;-69
2023/10/29 08:01:51;;;;;;;11.35;2.10;;;;;;;12.54;92.88;99221.53;5018679;28;20030;-70
2023/10/29 08:04:16;;;;;;;11.02;1.80;;;;;;;12.58;92.04;99225.38;5018909;28;20021;-69
2023/10/29 08:06:43;;;;;;;10.68;1.70;;;;;;;12.66;91.96;99229.56;5010136;28;20025;-70
2023/10/29 08:09:08;;;;;;;8.70;2.10;;;;;;;12.67;91.69;99224.03;5014319;28;20040;-69
2023/10/29 08:11:35;;;;;;;11.85;1.95;;;;;;;12.71;91.15;99257.16;5018109;28;20026;-69
2023/10/29 08:14:01;;;;;;;5.95;1.55;;;;;;;12.83;90.30;99259.09;5030196;28;20054;-69
2023/10/29 08:16:26;;;;;;;10.48;2.00;;;;;;;12.90;90.14;99246.50;5013207;28;20462;-69
2023/10/29 08:18:51;;;;;;;10.27;2.08;;;;;;;12.88;90.10;99248.56;5017188;28;20063;-69
2023/10/29 08:21:18;;;;;;;7.03;1.90;;;;;;;13.01;89.15;99259.09;5023621;28;20068;-69
2023/10/29 08:23:43;;;;;;;8.13;1.80;;;;;;;13.07;88.97;99263.50;5018651;28;20176;-69
2023/10/29 08:26:08;;;;;;;5.63;1.50;;;;;;;13.11;88.59;99279.84;5013412;28;20029;-69
2023/10/29 08:28:35;;;;;;;7.25;1.77;;;;;;;13.11;88.08;99272.69;5008799;28;20105;-69
2023/10/29 08:31:01;;;;;;;9.10;1.90;;;;;;;13.10;87.36;99272.91;5010744;28;20022;-69
2023/10/29 08:33:27;;;;;;;9.50;1.65;;;;;;;13.08;86.40;99272.31;5009258;28;20017;-69
2023/10/29 08:35:52;;;;;;;10.88;1.67;;;;;;;13.10;86.68;99272.91;5009063;28;20044;-69
2023/10/29 08:38:19;;;;;;;11.32;1.92;;;;;;;13.15;86.23;99275.69;5022328;28;20671;-69
2023/10/29 08:40:44;;;;;;;9.18;1.70;;;;;;;13.20;85.58;99273.19;5016530;28;20395;-69
2023/10/29 08:43:09;;;;;;;10.20;2.03;;;;;;;13.24;85.35;99291.19;5016365;28;20037;-70
2023/10/29 08:45:34;;;;;;;6.38;1.60;;;;;;;13.29;84.67;99287.81;5009973;28;20029;-69
2023/10/29 08:48:00;;;;;;;9.45;1.70;;;;;;;13.34;84.12;99274.66;5013983;28;20028;-70
2023/10/29 08:50:25;;;;;;;8.15;1.63;;;;;;;13.36;83.77;99293.09;5023837;28;20067;-69
2023/10/29 08:52:50;;;;;;;6.35;1.42;;;;;;;13.40;83.47;99305.75;5019203;28;20407;-69
2023/10/29 08:55:16;;;;;;;8.80;1.85;;;;;;;13.41;82.80;99298.56;5011429;28;20030;-70
2023/10/29 08:57:41;;;;;;;8.98;1.67;;;;;;;13.44;83.06;99316.75;5034615;28;20029;-69
2023/10/29 09:00:07;;;;;;;9.32;1.80;;;;;;;13.49;82.72;99328.38;5020455;28;20037;-69
2023/10/29 09:02:32;;;;;;;8.73;1.50;;;;;;;13.44;82.08;99309.56;5009223;28;20041;-69
2023/10/29 09:04:57;;;;;;;7.97;1.70;;;;;;;13.52;81.67;99322.59;5026513;28;20034;-69
2023/10/29 09:07:25;;;;;;;8.52;1.52;;;;;;;13.56;81.79;99344.28;5025253;28;20030;-70
2023/10/29 09:09:50;;;;;;;9.85;1.70;;;;;;;13.60;81.52;99337.47;5018843;28;20391;-69
2023/10/29 09:12:16;;;;;;;8.75;1.50;;;;;;;13.64;81.10;99346.66;5028856;28;20647;-69
2023/10/29 09:14:41;;;;;;;6.43;1.45;;;;;;;13.67;80.64;99367.53;5029085;28;20064;-69
2023/10/29 09:17:06;;;;;;;7.10;1.45;;;;;;;13.67;80.25;99356.06;5031831;28;20029;-70
2023/10/29 09:19:32;;;;;;;7.18;1.50;;;;;;;13.65;79.60;99364.28;5023197;28;20022;-69
2023/10/29 09:21:57;;;;;;;8.60;1.90;;;;;;;13.59;79.04;99371.34;5015247;28;20030;-69
2023/10/29 09:24:23;;;;;;;9.82;1.77;;;;;;;13.62;78.39;99362.88;5019628;28;20041;-70
2023/10/29 09:26:49;;;;;;;7.65;1.60;;;;;;;13.60;78.31;99359.63;5032363;28;20454;-70
2023/10/29 09:29:14;;;;;;;9.82;1.77;;;;;;;13.65;77.78;99356.28;5021023;28;20029;-69
2023/10/29 09:31:39;;;;;;;8.20;1.58;;;;;;;13.61;78.10;99349.78;5026599;28;20054;-70
2023/10/29 09:34:05;;;;;;;7.47;1.48;;;;;;;13.72;78.36;99364.19;5012896;28;20034;-69
2023/10/29 09:36:30;;;;;;;8.48;1.77;;;;;;;13.78;77.84;99358.75;5022930;28;20040;-69
2023/10/29 09:38:56;;;;;;;12.93;1.67;;;;;;;13.82;77.30;99367.09;5029616;28;20124;-69
2023/10/29 09:41:21;;;;;;;7.40;1.50;;;;;;;13.80;76.94;99345.16;5021311;28;20025;-69
2023/10/29 09:43:50;;;;;;;8.20;1.40;;;;;;;13.87;76.51;99360.03;5012575;28;20058;-69
2023/10/29 09:46:19;;;;;;;11.10;1.92;;;;;;;13.97;77.53;99370.19;5028874;28;20487;-69
2023/10/29 09:48:45;;;;;;;11.40;2.10;;;;;;;14.03;77.06;99379.94;5025858;28;20041;-69
2023/10/29 09:51:11;;;;;;;9.40;1.50;;;;;;;14.06;76.68;99365.31;5021004;28;20073;-69
2023/10/29 09:53:37;;;;;;;9.95;1.67;;;;;;;14.03;76.22;99355.09;5024774;28;20022;-69
2023/10/29 09:56:08;;;;;;;8.48;1.58;;;;;;;14.00;75.95;99368.91;5028412;28;20017;-69
2023/10/29 09:58:35;;;;;;;11.02;1.75;;;;;;;13.94;75.86;99368.78;5023515;28;20026;-69
2023/10/29 10:01:02;;;;;;;8.88;1.80;;;;;;;13.90;75.96;99369.47;5011458;28;20049;-69
2023/10/29 10:03:27;;;;;;;12.38;1.65;;;;;;;13.81;76.00;99363.63;5019042;28;20037;-69
2023/10/29 10:05:54;;;;;;;11.40;1.75;;;;;;;13.82;76.58;99346.56;5014922;28;20021;-69
2023/10/29 10:08:29;;;;;;;10.55;1.92;;;;;;;13.76;76.52;99326.16;5016751;28;20026;-69
2023/10/29 10:10:59;;;;;;;7.82;1.48;;;;;;;13.68;76.20;99329.16;5016616;28;20021;-69
2023/10/29 10:13:41;;;;;;;8.25;1.52;;;;;;;13.69;76.95;99330.78;5018965;28;20114;-69
2023/10/29 10:16:12;;;;;;;7.72;1.58;;;;;;;13.65;76.80;99334.94;5020444;28;20029;-69
2023/10/29 10:18:50;;;;;;;8.50;2.20;;;;;;;13.61;76.54;99339.91;5023450;28;20025;-69
2023/10/29 10:21:16;;;;;;;7.93;2.00;;;;;;;13.58;76.42;99337.69;5021674;28;20037;-69
2023/10/29 10:23:46;;;;;;;6.63;1.65;;;;;;;13.52;76.83;99338.59;5011759;28;20356;-69
2023/10/29 10:26:13;;;;;;;11.93;1.70;;;;;;;13.49;76.42;99341.72;5012425;28;20025;-70
2023/10/29 10:28:51;;;;;;;10.68;1.92;;;;;;;13.51;76.63;99344.97;5017278;28;20498;-69
2023/10/29 10:31:18;;;;;;;15.57;2.25;;;;;;;13.47;76.76;99333.13;5018792;28;20046;-69
2023/10/29 10:33:43;;;;;;;9.10;1.85;;;;;;;13.49;77.31;99338.22;5024553;28;20131;-70
2023/10/29 10:36:08;;;;;;;10.15;1.90;;;;;;;13.55;77.47;99358.66;5010899;28;20026;-69
2023/10/29 10:38:33;;;;;;;10.48;2.00;;;;;;;13.57;77.25;99351.25;5012234;28;20423;-70
2023/10/29 10:40:59;;;;;;;11.15;2.05;;;;;;;13.63;77.47;99363.69;5016217;28;20018;-69
2023/10/29 10:43:26;;;;;;;13.30;1.80;;;;;;;13.66;77.17;99367.75;5019276;28;20033;-70
2023/10/29 10:45:54;;;;;;;10.95;2.05;;;;;;;13.66;77.10;99362.44;5025405;28;20033;-69
2023/10/29 10:48:20;;;;;;;8.32;1.73;;;;;;;13.73;77.06;99373.81;5023221;28;20033;-69
2023/10/29 10:50:46;;;;;;;11.77;1.85;;;;;;;13.72;76.95;99381.00;5024980;28;20018;-69
2023/10/29 10:53:13;;;;;;;11.15;2.00;;;;;;;13.68;76.70;99381.69;5018549;28;20737;-69
2023/10/29 10:55:39;;;;;;;9.15;1.70;;;;;;;13.68;76.70;99385.16;5012148;28;20072;-69
2023/10/29 10:58:05;;;;;;;9.60;1.83;;;;;;;13.64;77.09;99378.66;5020287;28;20723;-69
2023/10/29 11:00:34;;;;;;;10.68;2.13;;;;;;;13.63;77.41;99374.38;5021702;28;20035;-69
2023/10/29 11:03:01;;;;;;;13.88;2.10;;;;;;;13.58;77.65;99371.53;5024074;28;20088;-69
2023/10/29 11:05:30;;;;;;;11.02;1.80;;;;;;;13.53;78.40;99360.75;5019767;28;20025;-70
2023/10/29 11:07:57;;;;;;;7.07;1.50;;;;;;;13.53;78.19;99364.22;5032827;28;20032;-69
2023/10/29 11:10:24;;;;;;;11.75;2.17;;;;;;;13.51;78.02;99354.81;5016007;28;20033;-70
2023/10/29 11:12:50;;;;;;;6.32;1.48;;;;;;;13.46;78.50;99342.16;5012008;28;20494;-70
2023/10/29 11:15:17;;;;;;;8.13;1.73;;;;;;;13.46;78.29;99333.34;5035307;28;20056;-69
2023/10/29 11:17:56;;;;;;;11.73;2.05;;;;;;;13.46;78.47;99341.34;5021380;28;20021;-70
2023/10/29 11:20:41;;;;;;;8.93;1.60;;;;;;;13.44;78.44;99352.25;5016341;28;20033;-70
2023/10/29 11:23:12;;;;;;;8.07;1.88;;;;;;;13.43;78.79;99347.13;5025345;28;20084;-70